createdAt,value
2023-04-02T00:00:02.230Z,21.2
2023-04-02T00:05:01.796Z,21.2
2023-04-02T00:10:01.050Z,21.2
2023-04-02T00:15:01.042Z,21.3
2023-04-02T00:20:01.480Z,21.3
2023-04-02T00:25:02.229Z,21.3
2023-04-02T00:30:02.127Z,21.4
2023-04-02T00:35:01.605Z,21.4
2023-04-02T00:40:01.926Z,21.5
2023-04-02T00:45:01.223Z,21.5
2023-04-02T00:50:01.218Z,21.5
2023-04-02T00:55:01.475Z,21.5
2023-04-02T01:00:01.239Z,21.6
2023-04-02T01:05:01.523Z,21.6
2023-04-02T01:10:01.600Z,21.6
2023-04-02T01:15:00.995Z,21.6
2023-04-02T01:20:01.823Z,21.7
2023-04-02T01:25:01.921Z,21.6
2023-04-02T01:30:01.429Z,21.7
2023-04-02T01:35:01.910Z,21.7
2023-04-02T01:40:02.446Z,21.7
2023-04-02T01:45:00.272Z,21.8
2023-04-02T01:50:01.672Z,21.7
2023-04-02T01:55:01.240Z,21.8
2023-04-02T02:00:00.988Z,21.8
2023-04-02T02:05:02.249Z,21.8
2023-04-02T02:10:01.542Z,21.8
2023-04-02T02:15:01.093Z,21.8
2023-04-02T02:20:01.908Z,21.8
2023-04-02T02:25:01.242Z,21.8
2023-04-02T02:30:01.413Z,21.8
2023-04-02T02:35:01.464Z,21.9
2023-04-02T02:40:01.188Z,21.8
2023-04-02T02:45:01.443Z,21.8
2023-04-02T02:50:01.892Z,21.8
2023-04-02T02:55:01.081Z,21.8
2023-04-02T03:00:01.376Z,21.9
2023-04-02T03:05:00.985Z,21.9
2023-04-02T03:10:03.175Z,21.9
2023-04-02T03:15:00.288Z,21.9
2023-04-02T03:20:00.982Z,21.9
2023-04-02T03:25:01.496Z,21.9
2023-04-02T03:30:01.969Z,21.9
2023-04-02T03:35:01.018Z,21.8
2023-04-02T03:40:02.247Z,21.9
2023-04-02T03:45:00.912Z,21.9
2023-04-02T03:50:01.116Z,21.9
2023-04-02T03:55:01.492Z,21.9
2023-04-02T04:05:01.433Z,21.9
2023-04-02T04:10:01.898Z,21.9
2023-04-02T04:15:01.095Z,21.9
2023-04-02T04:20:01.075Z,21.9
2023-04-02T04:25:01.452Z,21.9
2023-04-02T04:30:01.232Z,21.9
2023-04-02T04:35:01.022Z,21.9
2023-04-02T04:40:01.079Z,21.9
2023-04-02T04:45:01.226Z,21.9
2023-04-02T04:50:01.382Z,21.9
2023-04-02T04:55:01.324Z,21.9
2023-04-02T05:00:02.135Z,21.8
2023-04-02T05:05:01.058Z,21.9
2023-04-02T05:10:02.102Z,21.9
2023-04-02T05:15:01.043Z,21.9
2023-04-02T05:20:03.011Z,21.9
2023-04-02T05:25:04.251Z,21.9
2023-04-02T05:30:02.388Z,21.9
2023-04-02T05:35:01.872Z,21.9
2023-04-02T05:40:02.376Z,21.9
2023-04-02T05:45:01.300Z,21.9
2023-04-02T05:50:00.999Z,21.9
2023-04-02T05:55:00.308Z,21.9
2023-04-02T06:00:01.960Z,21.9
2023-04-02T06:05:00.946Z,21.9
2023-04-02T06:10:01.401Z,21.9
2023-04-02T06:15:01.555Z,21.8
2023-04-02T06:20:00.958Z,21.8
2023-04-02T06:25:02.009Z,21.8
2023-04-02T06:30:02.240Z,21.9
2023-04-02T06:35:02.189Z,21.9
2023-04-02T06:40:01.526Z,21.9
2023-04-02T06:45:01.494Z,21.9
2023-04-02T06:50:02.941Z,21.9
2023-04-02T06:55:01.157Z,21.9
2023-04-02T07:00:01.116Z,21.9
2023-04-02T07:05:01.118Z,21.9
2023-04-02T07:10:00.284Z,21.9
2023-04-02T07:15:01.311Z,21.9
2023-04-02T07:20:01.975Z,21.9
2023-04-02T07:25:01.056Z,21.9
2023-04-02T07:30:01.591Z,21.9
2023-04-02T07:35:00.960Z,21.9
2023-04-02T07:40:01.274Z,21.9
2023-04-02T07:45:01.448Z,21.9
2023-04-02T07:50:02.250Z,21.9
2023-04-02T07:55:01.907Z,22.0
2023-04-02T08:00:02.233Z,22.0
2023-04-02T08:05:01.346Z,22.0
2023-04-02T08:10:00.938Z,22.0
2023-04-02T08:15:02.590Z,22.0
2023-04-02T08:20:02.067Z,22.1
2023-04-02T08:25:01.248Z,22.0
2023-04-02T08:30:01.064Z,22.1
2023-04-02T08:35:01.955Z,22.1
2023-04-02T08:40:01.025Z,22.1
2023-04-02T08:45:05.901Z,22.1
2023-04-02T08:50:01.312Z,22.1
2023-04-02T08:55:01.076Z,22.1
2023-04-02T09:00:02.732Z,22.1
2023-04-02T09:05:00.971Z,22.2
2023-04-02T09:10:01.885Z,22.2
2023-04-02T09:15:02.508Z,22.2
2023-04-02T09:20:00.343Z,22.2
2023-04-02T09:25:02.075Z,22.2
2023-04-02T09:30:01.692Z,22.2
2023-04-02T09:35:03.084Z,22.2
2023-04-02T09:40:01.175Z,22.2
2023-04-02T09:45:01.740Z,22.2
2023-04-02T09:50:00.878Z,22.2
2023-04-02T09:55:01.097Z,22.3
2023-04-02T10:00:01.205Z,22.3
2023-04-02T10:05:01.300Z,22.3
2023-04-02T10:10:00.843Z,22.3
2023-04-02T10:15:01.724Z,22.3
2023-04-02T10:20:00.983Z,22.3
2023-04-02T10:25:00.778Z,22.3
2023-04-02T10:30:00.989Z,22.3
2023-04-02T10:35:01.599Z,22.4
2023-04-02T10:40:01.776Z,22.4
2023-04-02T10:45:00.826Z,22.3
2023-04-02T10:50:00.813Z,22.3
2023-04-02T10:55:01.592Z,22.3
2023-04-02T11:00:01.988Z,22.4
2023-04-02T11:05:01.890Z,22.3
2023-04-02T11:10:02.960Z,22.4
2023-04-02T11:15:01.631Z,22.4
2023-04-02T11:20:01.207Z,22.3
2023-04-02T11:25:00.968Z,22.3
2023-04-02T11:30:02.622Z,22.3
2023-04-02T11:35:06.919Z,22.2
2023-04-02T11:40:02.886Z,22.3
2023-04-02T11:45:02.112Z,22.2
2023-04-02T11:50:00.813Z,22.2
2023-04-02T11:55:01.622Z,22.2
2023-04-02T12:05:03.597Z,22.2
2023-04-02T12:10:01.144Z,22.2
2023-04-02T12:15:01.532Z,22.3
2023-04-02T12:20:05.200Z,22.2
2023-04-02T12:25:01.314Z,22.2
2023-04-02T12:30:01.819Z,22.2
2023-04-02T12:35:01.048Z,22.2
2023-04-02T12:40:01.355Z,22.2
2023-04-02T12:45:00.282Z,22.2
2023-04-02T12:50:02.656Z,22.1
2023-04-02T12:55:01.293Z,22.1
2023-04-02T13:00:03.459Z,22.1
2023-04-02T13:05:01.283Z,22.0
2023-04-02T13:10:01.019Z,21.9
2023-04-02T13:15:04.134Z,21.9
2023-04-02T13:20:01.172Z,21.8
2023-04-02T13:25:01.968Z,21.8
2023-04-02T13:30:02.778Z,21.7
2023-04-02T13:35:01.867Z,21.8
2023-04-02T13:40:03.715Z,21.8
2023-04-02T13:45:03.890Z,21.8
2023-04-02T13:50:03.348Z,21.8
2023-04-02T13:55:02.735Z,21.9
2023-04-02T14:05:01.418Z,21.9
2023-04-02T14:10:01.465Z,21.9
2023-04-02T14:15:01.503Z,22.0
2023-04-02T14:20:01.321Z,22.0
2023-04-02T14:25:01.683Z,22.0
2023-04-02T14:30:00.920Z,22.1
2023-04-02T14:35:02.111Z,22.1
2023-04-02T14:40:00.641Z,22.1
2023-04-02T14:45:02.510Z,22.2
2023-04-02T14:50:02.142Z,22.2
2023-04-02T14:55:01.563Z,22.2
2023-04-02T15:00:01.418Z,22.3
2023-04-02T15:05:01.782Z,22.3
2023-04-02T15:10:02.141Z,22.3
2023-04-02T15:15:01.061Z,22.3
2023-04-02T15:20:01.413Z,22.3
2023-04-02T15:25:01.397Z,22.4
2023-04-02T15:30:01.930Z,22.4
2023-04-02T15:35:01.569Z,22.5
2023-04-02T15:40:01.436Z,22.5
2023-04-02T15:45:00.283Z,22.5
2023-04-02T15:50:01.459Z,22.5
2023-04-02T15:55:01.028Z,22.5
2023-04-02T16:00:01.052Z,22.5
2023-04-02T16:05:01.449Z,22.5
2023-04-02T16:10:01.009Z,22.3
2023-04-02T16:15:03.382Z,22.2
2023-04-02T16:20:02.249Z,22.1
2023-04-02T16:25:01.879Z,22.0
2023-04-02T16:30:01.297Z,21.8
2023-04-02T16:35:13.156Z,21.8
2023-04-02T16:40:03.143Z,21.8
2023-04-02T16:45:03.391Z,21.9
2023-04-02T16:50:02.177Z,21.9
2023-04-02T16:55:03.147Z,21.9
2023-04-02T17:00:01.944Z,22.0
2023-04-02T17:05:01.058Z,22.0
2023-04-02T17:10:03.250Z,22.1
2023-04-02T17:15:01.163Z,22.2
2023-04-02T17:20:00.972Z,22.2
2023-04-02T17:25:01.846Z,22.3
2023-04-02T17:30:02.260Z,22.4
2023-04-02T17:35:02.072Z,22.4
2023-04-02T17:40:01.583Z,22.5
2023-04-02T17:45:01.134Z,22.5
2023-04-02T17:50:01.694Z,22.5
2023-04-02T17:55:01.099Z,22.5
2023-04-02T18:00:01.112Z,22.5
2023-04-02T18:05:01.485Z,22.5
2023-04-02T18:10:00.781Z,22.6
2023-04-02T18:15:01.299Z,22.5
2023-04-02T18:20:02.929Z,22.3
2023-04-02T18:25:01.500Z,22.0
2023-04-02T18:30:01.310Z,21.8
2023-04-02T18:35:03.507Z,21.5
2023-04-02T18:40:01.243Z,21.5
2023-04-02T18:45:01.028Z,21.5
2023-04-02T18:50:00.995Z,21.5
2023-04-02T18:55:01.273Z,21.5
2023-04-02T19:00:02.344Z,21.6
2023-04-02T19:05:01.230Z,21.6
2023-04-02T19:10:04.816Z,21.6
2023-04-02T19:15:01.317Z,21.7
2023-04-02T19:20:01.251Z,21.7
2023-04-02T19:25:01.477Z,21.8
2023-04-02T19:30:03.652Z,21.8
2023-04-02T19:35:04.881Z,21.8
2023-04-02T19:40:01.456Z,21.9
2023-04-02T19:45:01.322Z,21.9
2023-04-02T19:50:01.103Z,22.0
2023-04-02T19:55:01.514Z,22.0
2023-04-02T20:00:02.387Z,22.0
2023-04-02T20:05:03.381Z,22.1
2023-04-02T20:10:00.278Z,22.1
2023-04-02T20:15:01.820Z,22.2
2023-04-02T20:20:01.069Z,22.2
2023-04-02T20:25:01.116Z,22.2
2023-04-02T20:30:01.871Z,22.2
2023-04-02T20:35:01.221Z,22.2
2023-04-02T20:40:01.265Z,22.2
2023-04-02T20:45:01.526Z,22.2
2023-04-02T20:50:01.106Z,22.2
2023-04-02T20:55:01.598Z,22.2
2023-04-02T21:00:01.449Z,22.2
2023-04-02T21:05:01.134Z,22.2
2023-04-02T21:10:02.201Z,22.2
2023-04-02T21:15:02.901Z,22.3
2023-04-02T21:20:03.708Z,22.3
2023-04-02T21:25:01.164Z,22.2
2023-04-02T21:30:02.054Z,22.2
2023-04-02T21:35:01.262Z,22.3
2023-04-02T21:40:01.579Z,22.2
2023-04-02T21:45:01.547Z,22.3
2023-04-02T21:50:01.096Z,22.3
2023-04-02T21:55:01.852Z,22.3
2023-04-02T22:00:01.287Z,22.3
2023-04-02T22:05:01.289Z,22.3
2023-04-02T22:10:01.472Z,22.3
2023-04-02T22:15:01.194Z,22.3
2023-04-02T22:20:00.997Z,22.3
2023-04-02T22:25:03.400Z,22.3
2023-04-02T22:30:01.537Z,22.3
2023-04-02T22:35:01.446Z,22.4
2023-04-02T22:40:01.495Z,22.3
2023-04-02T22:45:01.917Z,22.3
2023-04-02T22:50:01.195Z,22.2
2023-04-02T22:55:00.264Z,22.2
2023-04-02T23:00:01.057Z,22.1
2023-04-02T23:05:01.013Z,22.0
2023-04-02T23:10:04.744Z,22.0
2023-04-02T23:15:01.089Z,21.9
2023-04-02T23:20:01.853Z,21.9
2023-04-02T23:25:01.457Z,21.9
2023-04-02T23:30:02.359Z,21.8
2023-04-02T23:35:01.009Z,21.8
2023-04-02T23:40:03.233Z,21.7
2023-04-02T23:45:01.400Z,21.6
2023-04-02T23:50:01.938Z,21.5
2023-04-02T23:55:01.836Z,21.5
